sensor_id;sensor_type;location;lat;lon;timestamp;pressure;altitude;pressure_sealevel;temperature;humidity
31005;BME280;17676;52.254;4.490;2024-03-08T00:00:34;101987.72;;;5.03;100.00
31005;BME280;17676;52.254;4.490;2024-03-08T00:03:01;101977.13;;;5.01;100.00
31005;BME280;17676;52.254;4.490;2024-03-08T00:05:29;101984.91;;;5.04;100.00
31005;BME280;17676;52.254;4.490;2024-03-08T00:07:56;101971.31;;;5.06;100.00
31005;BME280;17676;52.254;4.490;2024-03-08T00:10:23;101982.50;;;5.01;100.00
31005;BME280;17676;52.254;4.490;2024-03-08T00:12:53;101965.41;;;5.02;100.00
31005;BME280;17676;52.254;4.490;2024-03-08T00:15:20;101964.72;;;5.00;100.00
31005;BME280;17676;52.254;4.490;2024-03-08T00:17:49;101970.50;;;4.96;100.00
31005;BME280;17676;52.254;4.490;2024-03-08T00:20:17;101948.50;;;4.92;100.00
31005;BME280;17676;52.254;4.490;2024-03-08T00:22:46;101959.25;;;4.92;100.00
31005;BME280;17676;52.254;4.490;2024-03-08T00:25:13;101965.00;;;4.97;100.00
31005;BME280;17676;52.254;4.490;2024-03-08T00:27:41;101946.97;;;4.80;100.00
31005;BME280;17676;52.254;4.490;2024-03-08T00:30:08;101961.19;;;4.90;100.00
31005;BME280;17676;52.254;4.490;2024-03-08T00:32:35;101934.66;;;4.87;100.00
31005;BME280;17676;52.254;4.490;2024-03-08T00:35:04;101953.41;;;5.06;100.00
31005;BME280;17676;52.254;4.490;2024-03-08T00:37:34;101943.69;;;4.96;100.00
31005;BME280;17676;52.254;4.490;2024-03-08T00:40:01;101923.94;;;4.78;100.00
31005;BME280;17676;52.254;4.490;2024-03-08T00:42:27;101945.50;;;4.95;100.00
31005;BME280;17676;52.254;4.490;2024-03-08T00:44:54;101948.19;;;4.95;100.00
31005;BME280;17676;52.254;4.490;2024-03-08T00:47:21;101944.28;;;4.80;100.00
31005;BME280;17676;52.254;4.490;2024-03-08T00:49:47;101950.22;;;4.84;100.00
31005;BME280;17676;52.254;4.490;2024-03-08T00:52:14;101950.75;;;4.87;100.00
31005;BME280;17676;52.254;4.490;2024-03-08T00:54:41;101916.91;;;4.67;100.00
31005;BME280;17676;52.254;4.490;2024-03-08T00:57:09;101935.41;;;4.80;100.00
31005;BME280;17676;52.254;4.490;2024-03-08T00:59:38;101931.03;;;4.69;100.00
31005;BME280;17676;52.254;4.490;2024-03-08T01:02:05;101924.41;;;4.73;100.00
31005;BME280;17676;52.254;4.490;2024-03-08T01:04:32;101942.59;;;4.79;100.00
31005;BME280;17676;52.254;4.490;2024-03-08T01:06:59;101931.56;;;4.82;100.00
31005;BME280;17676;52.254;4.490;2024-03-08T01:09:27;101923.66;;;4.81;100.00
31005;BME280;17676;52.254;4.490;2024-03-08T01:11:54;101923.41;;;4.74;100.00
31005;BME280;17676;52.254;4.490;2024-03-08T01:14:22;101915.63;;;4.71;100.00
31005;BME280;17676;52.254;4.490;2024-03-08T01:16:49;101908.75;;;4.59;100.00
31005;BME280;17676;52.254;4.490;2024-03-08T01:19:17;101911.44;;;4.59;100.00
31005;BME280;17676;52.254;4.490;2024-03-08T01:21:44;101912.16;;;4.61;100.00
31005;BME280;17676;52.254;4.490;2024-03-08T01:24:10;101907.66;;;4.52;100.00
31005;BME280;17676;52.254;4.490;2024-03-08T01:26:37;101900.88;;;4.48;100.00
31005;BME280;17676;52.254;4.490;2024-03-08T01:29:05;101896.34;;;4.49;100.00
31005;BME280;17676;52.254;4.490;2024-03-08T01:31:32;101864.53;;;4.27;100.00
31005;BME280;17676;52.254;4.490;2024-03-08T01:33:59;101871.81;;;4.53;100.00
31005;BME280;17676;52.254;4.490;2024-03-08T01:36:26;101873.78;;;4.51;100.00
31005;BME280;17676;52.254;4.490;2024-03-08T01:38:52;101884.75;;;4.58;100.00
31005;BME280;17676;52.254;4.490;2024-03-08T01:41:19;101888.78;;;4.44;100.00
31005;BME280;17676;52.254;4.490;2024-03-08T01:43:46;101860.84;;;4.28;100.00
31005;BME280;17676;52.254;4.490;2024-03-08T01:46:16;101860.28;;;4.34;100.00
31005;BME280;17676;52.254;4.490;2024-03-08T01:48:44;101869.13;;;4.53;100.00
31005;BME280;17676;52.254;4.490;2024-03-08T01:51:12;101865.88;;;4.59;100.00
31005;BME280;17676;52.254;4.490;2024-03-08T01:53:39;101857.44;;;4.45;100.00
31005;BME280;17676;52.254;4.490;2024-03-08T01:56:06;101862.78;;;4.45;100.00
31005;BME280;17676;52.254;4.490;2024-03-08T01:58:33;101836.44;;;4.40;100.00
31005;BME280;17676;52.254;4.490;2024-03-08T02:01:02;101853.94;;;4.44;100.00
31005;BME280;17676;52.254;4.490;2024-03-08T02:03:30;101838.00;;;4.43;100.00
31005;BME280;17676;52.254;4.490;2024-03-08T02:05:58;101840.53;;;4.44;100.00
31005;BME280;17676;52.254;4.490;2024-03-08T02:08:25;101851.09;;;4.46;100.00
31005;BME280;17676;52.254;4.490;2024-03-08T02:10:52;101837.72;;;4.46;100.00
31005;BME280;17676;52.254;4.490;2024-03-08T02:13:19;101853.47;;;4.58;100.00
31005;BME280;17676;52.254;4.490;2024-03-08T02:15:56;101843.22;;;4.44;100.00
31005;BME280;17676;52.254;4.490;2024-03-08T02:18:23;101848.59;;;4.35;100.00
31005;BME280;17676;52.254;4.490;2024-03-08T02:20:54;101831.53;;;4.26;100.00
31005;BME280;17676;52.254;4.490;2024-03-08T02:23:21;101841.34;;;4.45;100.00
31005;BME280;17676;52.254;4.490;2024-03-08T02:25:48;101833.03;;;4.38;100.00
31005;BME280;17676;52.254;4.490;2024-03-08T02:28:15;101837.28;;;4.41;100.00
31005;BME280;17676;52.254;4.490;2024-03-08T02:30:42;101829.81;;;4.35;100.00
31005;BME280;17676;52.254;4.490;2024-03-08T02:33:08;101832.66;;;4.33;100.00
31005;BME280;17676;52.254;4.490;2024-03-08T02:35:38;101823.94;;;4.22;100.00
31005;BME280;17676;52.254;4.490;2024-03-08T02:38:04;101816.44;;;4.25;100.00
31005;BME280;17676;52.254;4.490;2024-03-08T02:40:31;101793.47;;;4.13;100.00
31005;BME280;17676;52.254;4.490;2024-03-08T02:42:58;101811.63;;;4.19;100.00
31005;BME280;17676;52.254;4.490;2024-03-08T02:45:25;101803.66;;;4.10;100.00
31005;BME280;17676;52.254;4.490;2024-03-08T02:47:52;101809.84;;;4.10;100.00
31005;BME280;17676;52.254;4.490;2024-03-08T02:50:18;101776.75;;;3.92;100.00
31005;BME280;17676;52.254;4.490;2024-03-08T02:52:45;101794.06;;;3.98;100.00
31005;BME280;17676;52.254;4.490;2024-03-08T02:55:15;101792.94;;;4.10;100.00
31005;BME280;17676;52.254;4.490;2024-03-08T02:57:43;101797.84;;;4.05;100.00
31005;BME280;17676;52.254;4.490;2024-03-08T03:00:10;101787.84;;;4.07;100.00
31005;BME280;17676;52.254;4.490;2024-03-08T03:02:37;101789.81;;;3.95;100.00
31005;BME280;17676;52.254;4.490;2024-03-08T03:05:05;101781.38;;;3.90;100.00
31005;BME280;17676;52.254;4.490;2024-03-08T03:07:32;101789.00;;;3.95;100.00
31005;BME280;17676;52.254;4.490;2024-03-08T03:10:02;101777.72;;;3.91;100.00
31005;BME280;17676;52.254;4.490;2024-03-08T03:12:30;101766.75;;;3.75;100.00
31005;BME280;17676;52.254;4.490;2024-03-08T03:14:57;101761.97;;;3.79;100.00
31005;BME280;17676;52.254;4.490;2024-03-08T03:17:26;101783.66;;;3.85;100.00
31005;BME280;17676;52.254;4.490;2024-03-08T03:19:53;101776.63;;;3.75;100.00
31005;BME280;17676;52.254;4.490;2024-03-08T03:22:19;101776.88;;;3.72;100.00
31005;BME280;17676;52.254;4.490;2024-03-08T03:24:46;101764.09;;;3.75;100.00
31005;BME280;17676;52.254;4.490;2024-03-08T03:27:13;101756.34;;;3.72;100.00
31005;BME280;17676;52.254;4.490;2024-03-08T03:29:43;101739.72;;;3.50;100.00
31005;BME280;17676;52.254;4.490;2024-03-08T03:32:12;101761.97;;;3.69;100.00
31005;BME280;17676;52.254;4.490;2024-03-08T03:34:42;101755.19;;;3.65;100.00
31005;BME280;17676;52.254;4.490;2024-03-08T03:37:10;101760.81;;;3.62;100.00
31005;BME280;17676;52.254;4.490;2024-03-08T03:39:40;101757.03;;;3.55;100.00
31005;BME280;17676;52.254;4.490;2024-03-08T03:42:15;101761.81;;;3.71;100.00
31005;BME280;17676;52.254;4.490;2024-03-08T03:44:49;101754.06;;;3.58;100.00
31005;BME280;17676;52.254;4.490;2024-03-08T03:47:16;101741.13;;;3.63;100.00
31005;BME280;17676;52.254;4.490;2024-03-08T03:49:42;101743.34;;;3.58;100.00
31005;BME280;17676;52.254;4.490;2024-03-08T03:52:09;101748.16;;;3.64;100.00
31005;BME280;17676;52.254;4.490;2024-03-08T03:54:36;101749.97;;;3.54;100.00
31005;BME280;17676;52.254;4.490;2024-03-08T03:57:03;101737.47;;;3.45;100.00
31005;BME280;17676;52.254;4.490;2024-03-08T03:59:30;101736.06;;;3.60;100.00
31005;BME280;17676;52.254;4.490;2024-03-08T04:01:57;101731.13;;;3.65;100.00
31005;BME280;17676;52.254;4.490;2024-03-08T04:04:24;101743.09;;;3.61;100.00
31005;BME280;17676;52.254;4.490;2024-03-08T04:06:51;101741.13;;;3.44;100.00
31005;BME280;17676;52.254;4.490;2024-03-08T04:09:18;101737.88;;;3.69;100.00
31005;BME280;17676;52.254;4.490;2024-03-08T04:11:45;101732.97;;;3.55;100.00
31005;BME280;17676;52.254;4.490;2024-03-08T04:14:12;101718.31;;;3.50;100.00
31005;BME280;17676;52.254;4.490;2024-03-08T04:16:39;101738.31;;;3.55;100.00
31005;BME280;17676;52.254;4.490;2024-03-08T04:19:06;101728.44;;;3.46;100.00
31005;BME280;17676;52.254;4.490;2024-03-08T04:21:33;101702.25;;;3.21;100.00
31005;BME280;17676;52.254;4.490;2024-03-08T04:23:59;101723.09;;;3.27;100.00
31005;BME280;17676;52.254;4.490;2024-03-08T04:26:26;101714.38;;;3.35;100.00
31005;BME280;17676;52.254;4.490;2024-03-08T04:28:53;101723.53;;;3.32;100.00
31005;BME280;17676;52.254;4.490;2024-03-08T04:31:20;101717.44;;;3.30;100.00
31005;BME280;17676;52.254;4.490;2024-03-08T04:33:48;101717.19;;;3.43;100.00
31005;BME280;17676;52.254;4.490;2024-03-08T04:36:15;101702.53;;;3.37;100.00
31005;BME280;17676;52.254;4.490;2024-03-08T04:38:42;101721.41;;;3.45;100.00
31005;BME280;17676;52.254;4.490;2024-03-08T04:41:09;101708.31;;;3.23;100.00
31005;BME280;17676;52.254;4.490;2024-03-08T04:43:36;101715.06;;;3.18;100.00
31005;BME280;17676;52.254;4.490;2024-03-08T04:46:03;101716.75;;;3.28;100.00
31005;BME280;17676;52.254;4.490;2024-03-08T04:48:30;101705.06;;;3.29;100.00
31005;BME280;17676;52.254;4.490;2024-03-08T04:50:57;101709.56;;;3.29;100.00
31005;BME280;17676;52.254;4.490;2024-03-08T04:53:24;101685.63;;;3.08;100.00
31005;BME280;17676;52.254;4.490;2024-03-08T04:55:50;101703.38;;;3.09;100.00
31005;BME280;17676;52.254;4.490;2024-03-08T04:58:17;101703.94;;;3.22;100.00
31005;BME280;17676;52.254;4.490;2024-03-08T05:00:44;101706.19;;;3.27;100.00
31005;BME280;17676;52.254;4.490;2024-03-08T05:03:10;101688.03;;;3.21;100.00
31005;BME280;17676;52.254;4.490;2024-03-08T05:05:37;101704.22;;;3.29;100.00
31005;BME280;17676;52.254;4.490;2024-03-08T05:08:05;101694.50;;;3.28;100.00
31005;BME280;17676;52.254;4.490;2024-03-08T05:10:31;101692.66;;;3.09;100.00
31005;BME280;17676;52.254;4.490;2024-03-08T05:12:58;101686.91;;;3.04;100.00
31005;BME280;17676;52.254;4.490;2024-03-08T05:15:25;101678.47;;;3.09;100.00
31005;BME280;17676;52.254;4.490;2024-03-08T05:17:52;101683.97;;;3.07;100.00
31005;BME280;17676;52.254;4.490;2024-03-08T05:20:19;101679.16;;;3.01;100.00
31005;BME280;17676;52.254;4.490;2024-03-08T05:22:46;101652.13;;;2.85;100.00
31005;BME280;17676;52.254;4.490;2024-03-08T05:25:12;101687.91;;;3.03;100.00
31005;BME280;17676;52.254;4.490;2024-03-08T05:27:40;101675.78;;;2.99;100.00
31005;BME280;17676;52.254;4.490;2024-03-08T05:30:07;101680.28;;;3.08;100.00
31005;BME280;17676;52.254;4.490;2024-03-08T05:32:43;101659.28;;;2.94;100.00
31005;BME280;17676;52.254;4.490;2024-03-08T05:35:13;101658.03;;;2.98;100.00
31005;BME280;17676;52.254;4.490;2024-03-08T05:37:42;101679.03;;;3.12;100.00
31005;BME280;17676;52.254;4.490;2024-03-08T05:40:09;101645.22;;;2.83;100.00
31005;BME280;17676;52.254;4.490;2024-03-08T05:42:43;101673.25;;;3.07;100.00
31005;BME280;17676;52.254;4.490;2024-03-08T05:45:09;101671.56;;;3.06;100.00
31005;BME280;17676;52.254;4.490;2024-03-08T05:47:39;101667.91;;;3.07;100.00
31005;BME280;17676;52.254;4.490;2024-03-08T05:50:06;101657.63;;;3.03;100.00
31005;BME280;17676;52.254;4.490;2024-03-08T05:52:36;101662.84;;;3.04;100.00
31005;BME280;17676;52.254;4.490;2024-03-08T05:55:05;101651.00;;;2.97;100.00
31005;BME280;17676;52.254;4.490;2024-03-08T05:57:36;101667.34;;;3.13;100.00
31005;BME280;17676;52.254;4.490;2024-03-08T06:00:07;101657.34;;;2.96;100.00
31005;BME280;17676;52.254;4.490;2024-03-08T06:02:33;101669.88;;;3.05;100.00
31005;BME280;17676;52.254;4.490;2024-03-08T06:05:00;101659.28;;;2.94;100.00
31005;BME280;17676;52.254;4.490;2024-03-08T06:07:28;101654.41;;;3.09;100.00
31005;BME280;17676;52.254;4.490;2024-03-08T06:09:56;101662.56;;;3.07;100.00
31005;BME280;17676;52.254;4.490;2024-03-08T06:12:23;101656.38;;;3.07;100.00
31005;BME280;17676;52.254;4.490;2024-03-08T06:14:55;101648.22;;;3.08;100.00
31005;BME280;17676;52.254;4.490;2024-03-08T06:17:22;101649.06;;;3.09;100.00
31005;BME280;17676;52.254;4.490;2024-03-08T06:19:52;101651.28;;;2.94;100.00
31005;BME280;17676;52.254;4.490;2024-03-08T06:22:18;101644.28;;;3.12;100.00
31005;BME280;17676;52.254;4.490;2024-03-08T06:24:46;101654.09;;;3.21;100.00
31005;BME280;17676;52.254;4.490;2024-03-08T06:27:13;101624.00;;;3.10;100.00
31005;BME280;17676;52.254;4.490;2024-03-08T06:29:40;101650.03;;;3.27;100.00
31005;BME280;17676;52.254;4.490;2024-03-08T06:32:07;101653.25;;;3.30;100.00
31005;BME280;17676;52.254;4.490;2024-03-08T06:34:33;101656.66;;;3.23;100.00
31005;BME280;17676;52.254;4.490;2024-03-08T06:37:03;101652.44;;;3.20;100.00
31005;BME280;17676;52.254;4.490;2024-03-08T06:39:29;101659.31;;;3.23;100.00
31005;BME280;17676;52.254;4.490;2024-03-08T06:41:58;101649.75;;;3.30;100.00
31005;BME280;17676;52.254;4.490;2024-03-08T06:44:24;101648.47;;;3.43;100.00
31005;BME280;17676;52.254;4.490;2024-03-08T06:46:52;101622.44;;;3.26;100.00
31005;BME280;17676;52.254;4.490;2024-03-08T06:49:18;101630.44;;;3.36;100.00
31005;BME280;17676;52.254;4.490;2024-03-08T06:51:46;101633.69;;;3.39;100.00
31005;BME280;17676;52.254;4.490;2024-03-08T06:54:12;101631.84;;;3.40;100.00
31005;BME280;17676;52.254;4.490;2024-03-08T06:56:39;101636.94;;;3.43;100.00
31005;BME280;17676;52.254;4.490;2024-03-08T06:59:06;101632.97;;;3.37;100.00
31005;BME280;17676;52.254;4.490;2024-03-08T07:01:39;101625.38;;;3.42;100.00
31005;BME280;17676;52.254;4.490;2024-03-08T07:04:06;101596.69;;;3.25;100.00
31005;BME280;17676;52.254;4.490;2024-03-08T07:06:33;101620.28;;;3.49;100.00
31005;BME280;17676;52.254;4.490;2024-03-08T07:09:03;101621.56;;;3.45;100.00
31005;BME280;17676;52.254;4.490;2024-03-08T07:11:30;101620.59;;;3.55;100.00
31005;BME280;17676;52.254;4.490;2024-03-08T07:13:56;101624.66;;;3.59;100.00
31005;BME280;17676;52.254;4.490;2024-03-08T07:16:24;101614.88;;;3.77;100.00
31005;BME280;17676;52.254;4.490;2024-03-08T07:18:52;101610.91;;;3.81;100.00
31005;BME280;17676;52.254;4.490;2024-03-08T07:21:19;101582.28;;;3.45;100.00
31005;BME280;17676;52.254;4.490;2024-03-08T07:23:46;101565.94;;;3.48;100.00
31005;BME280;17676;52.254;4.490;2024-03-08T07:26:20;101601.75;;;3.84;100.00
31005;BME280;17676;52.254;4.490;2024-03-08T07:28:47;101610.91;;;3.81;100.00
31005;BME280;17676;52.254;4.490;2024-03-08T07:31:13;101596.53;;;3.82;100.00
31005;BME280;17676;52.254;4.490;2024-03-08T07:33:43;101597.03;;;3.95;100.00
31005;BME280;17676;52.254;4.490;2024-03-08T07:36:11;101594.63;;;4.02;100.00
31005;BME280;17676;52.254;4.490;2024-03-08T07:38:38;101597.13;;;4.03;100.00
31005;BME280;17676;52.254;4.490;2024-03-08T07:41:05;101601.41;;;4.23;100.00
31005;BME280;17676;52.254;4.490;2024-03-08T07:43:31;101603.13;;;4.24;100.00
31005;BME280;17676;52.254;4.490;2024-03-08T07:45:59;101596.41;;;4.11;100.00
31005;BME280;17676;52.254;4.490;2024-03-08T07:48:26;101596.66;;;4.17;100.00
31005;BME280;17676;52.254;4.490;2024-03-08T07:50:53;101594.19;;;4.33;100.00
31005;BME280;17676;52.254;4.490;2024-03-08T07:53:20;101607.28;;;4.36;100.00
31005;BME280;17676;52.254;4.490;2024-03-08T07:55:47;101579.16;;;4.23;100.00
31005;BME280;17676;52.254;4.490;2024-03-08T07:58:13;101594.16;;;4.60;100.00
31005;BME280;17676;52.254;4.490;2024-03-08T08:00:40;101593.59;;;4.57;100.00
31005;BME280;17676;52.254;4.490;2024-03-08T08:03:09;101582.53;;;4.69;100.00
31005;BME280;17676;52.254;4.490;2024-03-08T08:05:36;101582.38;;;4.71;100.00
31005;BME280;17676;52.254;4.490;2024-03-08T08:08:05;101580.75;;;4.78;100.00
31005;BME280;17676;52.254;4.490;2024-03-08T08:10:34;101581.00;;;4.84;100.00
31005;BME280;17676;52.254;4.490;2024-03-08T08:13:00;101584.22;;;5.05;100.00
31005;BME280;17676;52.254;4.490;2024-03-08T08:15:30;101582.19;;;5.07;100.00
31005;BME280;17676;52.254;4.490;2024-03-08T08:17:57;101568.25;;;5.04;100.00
31005;BME280;17676;52.254;4.490;2024-03-08T08:20:23;101554.31;;;5.00;100.00
31005;BME280;17676;52.254;4.490;2024-03-08T08:22:50;101561.16;;;5.20;100.00
31005;BME280;17676;52.254;4.490;2024-03-08T08:25:17;101559.56;;;5.27;100.00
31005;BME280;17676;52.254;4.490;2024-03-08T08:27:47;101549.25;;;5.40;100.00
31005;BME280;17676;52.254;4.490;2024-03-08T08:30:14;101555.31;;;5.43;100.00
31005;BME280;17676;52.254;4.490;2024-03-08T08:32:40;101553.69;;;5.50;100.00
31005;BME280;17676;52.254;4.490;2024-03-08T08:35:09;101540.97;;;5.60;100.00
31005;BME280;17676;52.254;4.490;2024-03-08T08:37:39;101551.69;;;6.19;100.00
31005;BME280;17676;52.254;4.490;2024-03-08T08:40:07;101543.06;;;7.53;100.00
31005;BME280;17676;52.254;4.490;2024-03-08T08:42:41;101545.59;;;8.70;100.00
31005;BME280;17676;52.254;4.490;2024-03-08T08:45:08;101539.00;;;9.69;100.00
31005;BME280;17676;52.254;4.490;2024-03-08T08:47:46;101552.34;;;10.64;100.00
31005;BME280;17676;52.254;4.490;2024-03-08T08:50:14;101545.88;;;10.65;100.00
31005;BME280;17676;52.254;4.490;2024-03-08T08:52:40;101536.66;;;11.71;100.00
31005;BME280;17676;52.254;4.490;2024-03-08T08:55:10;101538.47;;;11.98;100.00
31005;BME280;17676;52.254;4.490;2024-03-08T08:57:41;101552.75;;;12.07;100.00
31005;BME280;17676;52.254;4.490;2024-03-08T09:00:08;101532.91;;;11.72;100.00
31005;BME280;17676;52.254;4.490;2024-03-08T09:02:35;101530.22;;;11.24;100.00
31005;BME280;17676;52.254;4.490;2024-03-08T09:05:02;101506.19;;;11.69;100.00
31005;BME280;17676;52.254;4.490;2024-03-08T09:07:29;101510.34;;;11.99;100.00
31005;BME280;17676;52.254;4.490;2024-03-08T09:09:56;101522.53;;;12.16;100.00
31005;BME280;17676;52.254;4.490;2024-03-08T09:12:26;101526.56;;;12.40;100.00
31005;BME280;17676;52.254;4.490;2024-03-08T09:14:52;101525.84;;;12.18;100.00
31005;BME280;17676;52.254;4.490;2024-03-08T09:17:19;101525.44;;;12.15;100.00
31005;BME280;17676;52.254;4.490;2024-03-08T09:19:49;101519.91;;;11.95;100.00
31005;BME280;17676;52.254;4.490;2024-03-08T09:22:17;101525.44;;;12.68;100.00
31005;BME280;17676;52.254;4.490;2024-03-08T09:24:44;101516.69;;;12.92;100.00
31005;BME280;17676;52.254;4.490;2024-03-08T09:27:12;101510.88;;;13.02;100.00
31005;BME280;17676;52.254;4.490;2024-03-08T09:29:40;101517.47;;;12.60;100.00
31005;BME280;17676;52.254;4.490;2024-03-08T09:32:07;101504.84;;;12.33;100.00
31005;BME280;17676;52.254;4.490;2024-03-08T09:34:34;101520.63;;;12.83;100.00
31005;BME280;17676;52.254;4.490;2024-03-08T09:37:05;101506.22;;;12.70;100.00
31005;BME280;17676;52.254;4.490;2024-03-08T09:39:31;101496.41;;;12.75;100.00
31005;BME280;17676;52.254;4.490;2024-03-08T09:42:01;101491.34;;;12.59;100.00
31005;BME280;17676;52.254;4.490;2024-03-08T09:44:28;101489.47;;;12.60;100.00
31005;BME280;17676;52.254;4.490;2024-03-08T09:47:00;101483.50;;;13.29;100.00
31005;BME280;17676;52.254;4.490;2024-03-08T09:49:29;101468.19;;;12.89;100.00
31005;BME280;17676;52.254;4.490;2024-03-08T09:51:55;101470.13;;;13.21;100.00
31005;BME280;17676;52.254;4.490;2024-03-08T09:54:23;101485.38;;;13.48;100.00
31005;BME280;17676;52.254;4.490;2024-03-08T09:56:51;101447.66;;;13.58;100.00
31005;BME280;17676;52.254;4.490;2024-03-08T09:59:19;101463.91;;;13.91;100.00
31005;BME280;17676;52.254;4.490;2024-03-08T10:01:54;101458.28;;;14.36;100.00
31005;BME280;17676;52.254;4.490;2024-03-08T10:04:22;101454.94;;;14.34;100.00
31005;BME280;17676;52.254;4.490;2024-03-08T10:06:49;101445.38;;;14.12;100.00
31005;BME280;17676;52.254;4.490;2024-03-08T10:09:16;101434.47;;;14.12;100.00
31005;BME280;17676;52.254;4.490;2024-03-08T10:11:43;101430.84;;;13.87;100.00
31005;BME280;17676;52.254;4.490;2024-03-08T10:14:10;101417.47;;;14.61;100.00
31005;BME280;17676;52.254;4.490;2024-03-08T10:16:40;101427.53;;;14.60;100.00
31005;BME280;17676;52.254;4.490;2024-03-08T10:19:07;101427.44;;;13.98;100.00
31005;BME280;17676;52.254;4.490;2024-03-08T10:21:34;101432.53;;;13.88;100.00
31005;BME280;17676;52.254;4.490;2024-03-08T10:24:02;101410.47;;;13.39;100.00
31005;BME280;17676;52.254;4.490;2024-03-08T10:26:30;101415.44;;;13.55;100.00
31005;BME280;17676;52.254;4.490;2024-03-08T10:28:56;101396.66;;;13.41;100.00
31005;BME280;17676;52.254;4.490;2024-03-08T10:31:24;101412.00;;;13.92;100.00
31005;BME280;17676;52.254;4.490;2024-03-08T10:33:52;101405.53;;;14.24;100.00
31005;BME280;17676;52.254;4.490;2024-03-08T10:36:18;101396.19;;;14.07;100.00
31005;BME280;17676;52.254;4.490;2024-03-08T10:38:46;101384.28;;;14.08;100.00
31005;BME280;17676;52.254;4.490;2024-03-08T10:41:16;101403.19;;;14.65;100.00
31005;BME280;17676;52.254;4.490;2024-03-08T10:44:21;101394.16;;;15.39;100.00
31005;BME280;17676;52.254;4.490;2024-03-08T10:47:18;101388.03;;;14.07;100.00
31005;BME280;17676;52.254;4.490;2024-03-08T10:52:16;101369.22;;;13.99;100.00
31005;BME280;17676;52.254;4.490;2024-03-08T10:54:44;101378.09;;;14.26;100.00
31005;BME280;17676;52.254;4.490;2024-03-08T10:57:12;101342.59;;;13.70;100.00
31005;BME280;17676;52.254;4.490;2024-03-08T10:59:40;101356.59;;;14.11;100.00
31005;BME280;17676;52.254;4.490;2024-03-08T11:02:07;101326.56;;;13.93;100.00
31005;BME280;17676;52.254;4.490;2024-03-08T11:04:37;101353.69;;;14.68;100.00
31005;BME280;17676;52.254;4.490;2024-03-08T11:07:04;101358.47;;;14.98;93.76
31005;BME280;17676;52.254;4.490;2024-03-08T11:09:37;101342.91;;;14.55;92.55
31005;BME280;17676;52.254;4.490;2024-03-08T11:12:27;101339.59;;;14.53;95.89
31005;BME280;17676;52.254;4.490;2024-03-08T11:14:59;101330.56;;;14.77;92.09
31005;BME280;17676;52.254;4.490;2024-03-08T11:19:58;101310.22;;;14.55;98.28
31005;BME280;17676;52.254;4.490;2024-03-08T11:22:29;101318.31;;;14.87;94.91
31005;BME280;17676;52.254;4.490;2024-03-08T11:25:05;101299.59;;;14.16;93.96
31005;BME280;17676;52.254;4.490;2024-03-08T11:27:36;101291.06;;;14.44;96.36
31005;BME280;17676;52.254;4.490;2024-03-08T11:30:05;101301.56;;;14.83;96.87
31005;BME280;17676;52.254;4.490;2024-03-08T11:32:46;101288.63;;;14.78;93.26
31005;BME280;17676;52.254;4.490;2024-03-08T11:35:21;101279.72;;;15.26;90.17
31005;BME280;17676;52.254;4.490;2024-03-08T11:37:50;101284.06;;;14.72;88.50
31005;BME280;17676;52.254;4.490;2024-03-08T11:40:17;101274.38;;;14.58;92.58
31005;BME280;17676;52.254;4.490;2024-03-08T11:42:46;101258.31;;;14.19;93.06
31005;BME280;17676;52.254;4.490;2024-03-08T11:45:15;101271.09;;;14.25;92.07
31005;BME280;17676;52.254;4.490;2024-03-08T11:47:44;101256.75;;;14.36;95.90
31005;BME280;17676;52.254;4.490;2024-03-08T11:50:16;101263.13;;;14.48;91.64
31005;BME280;17676;52.254;4.490;2024-03-08T11:52:46;101252.41;;;14.53;90.84
31005;BME280;17676;52.254;4.490;2024-03-08T11:55:13;101249.19;;;14.07;89.20
31005;BME280;17676;52.254;4.490;2024-03-08T11:57:41;101252.28;;;14.17;94.19
31005;BME280;17676;52.254;4.490;2024-03-08T12:00:19;101214.66;;;13.52;100.00
31005;BME280;17676;52.254;4.490;2024-03-08T12:03:06;101230.06;;;13.58;100.00
31005;BME280;17676;52.254;4.490;2024-03-08T12:05:33;101219.41;;;13.26;100.00
31005;BME280;17676;52.254;4.490;2024-03-08T12:08:01;101219.16;;;13.34;100.00
31005;BME280;17676;52.254;4.490;2024-03-08T12:10:30;101205.69;;;12.95;100.00
31005;BME280;17676;52.254;4.490;2024-03-08T12:12:58;101219.31;;;12.88;100.00
31005;BME280;17676;52.254;4.490;2024-03-08T12:15:32;101191.63;;;12.47;100.00
31005;BME280;17676;52.254;4.490;2024-03-08T12:18:00;101189.13;;;12.52;100.00
31005;BME280;17676;52.254;4.490;2024-03-08T12:20:28;101185.75;;;12.63;100.00
31005;BME280;17676;52.254;4.490;2024-03-08T12:22:59;101191.59;;;12.60;100.00
31005;BME280;17676;52.254;4.490;2024-03-08T12:25:33;101176.72;;;12.69;100.00
31005;BME280;17676;52.254;4.490;2024-03-08T12:28:10;101186.41;;;12.46;100.00
31005;BME280;17676;52.254;4.490;2024-03-08T12:30:46;101176.59;;;12.51;100.00
31005;BME280;17676;52.254;4.490;2024-03-08T12:33:13;101160.75;;;12.22;100.00
31005;BME280;17676;52.254;4.490;2024-03-08T12:35:40;101168.91;;;12.22;100.00
31005;BME280;17676;52.254;4.490;2024-03-08T12:38:08;101160.16;;;12.20;100.00
31005;BME280;17676;52.254;4.490;2024-03-08T12:40:35;101148.69;;;11.92;100.00
31005;BME280;17676;52.254;4.490;2024-03-08T12:43:07;101130.75;;;11.65;100.00
31005;BME280;17676;52.254;4.490;2024-03-08T12:45:34;101150.78;;;11.71;100.00
31005;BME280;17676;52.254;4.490;2024-03-08T12:48:01;101137.59;;;11.48;100.00
31005;BME280;17676;52.254;4.490;2024-03-08T12:50:29;101131.53;;;11.40;100.00
31005;BME280;17676;52.254;4.490;2024-03-08T12:52:56;101137.41;;;11.56;100.00
31005;BME280;17676;52.254;4.490;2024-03-08T12:55:23;101122.63;;;11.65;100.00
31005;BME280;17676;52.254;4.490;2024-03-08T12:57:50;101121.75;;;11.58;100.00